createdAt,value
2022-09-23T00:00:08.650Z,476.00
2022-09-23T00:00:38.756Z,477.00
2022-09-23T00:01:09.008Z,477.00
2022-09-23T00:01:39.077Z,478.00
2022-09-23T00:02:09.147Z,476.00
2022-09-23T00:02:39.229Z,475.00
2022-09-23T00:03:09.197Z,474.00
2022-09-23T00:03:39.314Z,472.00
2022-09-23T00:04:09.307Z,470.00
2022-09-23T00:04:39.420Z,472.00
2022-09-23T00:05:09.530Z,473.00
2022-09-23T00:05:39.641Z,474.00
2022-09-23T00:06:09.751Z,474.00
2022-09-23T00:06:39.868Z,475.00
2022-09-23T00:07:09.976Z,476.00
2022-09-23T00:07:40.089Z,476.00
2022-09-23T00:08:10.202Z,475.00
2022-09-23T00:08:40.314Z,476.00
2022-09-23T00:09:10.426Z,476.00
2022-09-23T00:09:40.536Z,473.00
2022-09-23T00:10:10.645Z,472.00
2022-09-23T00:10:40.756Z,471.00
2022-09-23T00:11:10.867Z,473.00
2022-09-23T00:11:40.980Z,473.00
2022-09-23T00:12:11.091Z,474.00
2022-09-23T00:12:41.200Z,476.00
2022-09-23T00:13:11.315Z,477.00
2022-09-23T00:13:41.432Z,479.00
2022-09-23T00:14:11.540Z,480.00
2022-09-23T00:14:41.654Z,479.00
2022-09-23T00:15:11.762Z,479.00
2022-09-23T00:15:41.877Z,479.00
2022-09-23T00:16:11.985Z,477.00
2022-09-23T00:16:42.164Z,476.00
2022-09-23T00:17:12.178Z,475.00
2022-09-23T00:17:42.139Z,473.00
2022-09-23T00:18:12.183Z,472.00
2022-09-23T00:18:42.255Z,471.00
2022-09-23T00:19:12.335Z,471.00
2022-09-23T00:19:42.412Z,468.00
2022-09-23T00:20:12.478Z,468.00
2022-09-23T00:20:42.555Z,466.00
2022-09-23T00:21:12.627Z,463.00
2022-09-23T00:21:42.703Z,462.00
2022-09-23T00:22:12.778Z,464.00
2022-09-23T00:22:42.849Z,463.00
2022-09-23T00:23:12.925Z,463.00
2022-09-23T00:23:43.082Z,463.00
2022-09-23T00:24:12.996Z,462.00
2022-09-23T00:24:43.071Z,464.00
2022-09-23T00:25:13.140Z,466.00
2022-09-23T00:25:43.211Z,466.00
2022-09-23T00:26:13.282Z,467.00
2022-09-23T00:26:43.375Z,468.00
2022-09-23T00:27:13.488Z,466.00
2022-09-23T00:27:43.598Z,466.00
2022-09-23T00:28:13.713Z,465.00
2022-09-23T00:28:43.826Z,467.00
2022-09-23T00:29:13.932Z,465.00
2022-09-23T00:29:44.042Z,467.00
2022-09-23T00:30:14.156Z,466.00
2022-09-23T00:30:44.343Z,468.00
2022-09-23T00:31:14.385Z,469.00
2022-09-23T00:31:44.364Z,469.00
2022-09-23T00:32:14.474Z,472.00
2022-09-23T00:32:44.588Z,468.00
2022-09-23T00:33:14.724Z,469.00
2022-09-23T00:33:44.827Z,469.00
2022-09-23T00:34:14.917Z,470.00
2022-09-23T00:34:45.026Z,470.00
2022-09-23T00:35:15.143Z,470.00
2022-09-23T00:35:45.251Z,469.00
2022-09-23T00:36:15.363Z,469.00
2022-09-23T00:36:45.478Z,470.00
2022-09-23T00:37:15.587Z,470.00
2022-09-23T00:37:45.696Z,467.00
2022-09-23T00:38:15.806Z,469.00
2022-09-23T00:38:45.926Z,469.00
2022-09-23T00:39:15.912Z,469.00
2022-09-23T00:39:46.019Z,470.00
2022-09-23T00:40:16.223Z,469.00
2022-09-23T00:40:46.373Z,470.00
2022-09-23T00:41:16.231Z,470.00
2022-09-23T00:41:46.235Z,470.00
2022-09-23T00:42:16.350Z,471.00
2022-09-23T00:42:46.451Z,472.00
2022-09-23T00:43:16.565Z,473.00
2022-09-23T00:43:46.679Z,473.00
2022-09-23T00:44:16.787Z,474.00
2022-09-23T00:44:46.898Z,475.00
2022-09-23T00:45:17.022Z,474.00
2022-09-23T00:45:47.181Z,476.00
2022-09-23T00:46:17.297Z,475.00
2022-09-23T00:46:47.310Z,473.00
2022-09-23T00:47:17.291Z,474.00
2022-09-23T00:47:47.405Z,474.00
2022-09-23T00:48:17.547Z,474.00
2022-09-23T00:48:47.631Z,473.00
2022-09-23T00:49:17.739Z,473.00
2022-09-23T00:49:47.855Z,473.00
2022-09-23T00:50:17.955Z,473.00
2022-09-23T00:50:48.070Z,473.00
2022-09-23T00:51:18.187Z,471.00
2022-09-23T00:51:48.304Z,472.00
2022-09-23T00:52:18.419Z,473.00
2022-09-23T00:52:48.412Z,474.00
2022-09-23T00:53:18.525Z,473.00
2022-09-23T00:53:48.638Z,472.00
2022-09-23T00:54:18.746Z,470.00
2022-09-23T00:54:48.860Z,470.00
2022-09-23T00:55:18.974Z,472.00
2022-09-23T00:55:49.084Z,470.00
2022-09-23T00:56:19.196Z,471.00
2022-09-23T00:56:49.312Z,470.00
2022-09-23T00:57:19.425Z,471.00
2022-09-23T00:57:49.538Z,472.00
2022-09-23T00:58:19.644Z,471.00
2022-09-23T00:58:49.762Z,470.00
2022-09-23T00:59:19.871Z,470.00
2022-09-23T00:59:49.982Z,470.00
2022-09-23T01:00:20.099Z,474.00
2022-09-23T01:00:50.319Z,475.00
2022-09-23T01:01:20.392Z,475.00
2022-09-23T01:01:50.378Z,475.00
2022-09-23T01:02:20.553Z,473.00
2022-09-23T01:02:50.602Z,471.00
2022-09-23T01:03:20.584Z,472.00
2022-09-23T01:03:50.672Z,471.00
2022-09-23T01:04:20.783Z,470.00
2022-09-23T01:04:50.891Z,469.00
2022-09-23T01:05:21.003Z,469.00
2022-09-23T01:05:51.111Z,468.00
2022-09-23T01:06:21.226Z,469.00
2022-09-23T01:06:51.343Z,470.00
2022-09-23T01:07:21.449Z,470.00
2022-09-23T01:07:51.559Z,471.00
2022-09-23T01:08:21.677Z,470.00
2022-09-23T01:11:45.598Z,486.00
2022-09-23T01:12:54.633Z,475.00
2022-09-23T01:13:24.706Z,472.00
2022-09-23T01:13:54.784Z,471.00
2022-09-23T01:14:24.853Z,468.00
2022-09-23T01:14:54.920Z,466.00
2022-09-23T01:15:24.998Z,467.00
2022-09-23T01:15:55.072Z,465.00
2022-09-23T01:16:25.247Z,464.00
2022-09-23T01:16:55.252Z,462.00
2022-09-23T01:17:25.307Z,460.00
2022-09-23T01:17:55.381Z,458.00
2022-09-23T01:18:25.474Z,459.00
2022-09-23T01:18:55.521Z,459.00
2022-09-23T01:19:25.601Z,455.00
2022-09-23T01:19:55.669Z,456.00
2022-09-23T01:20:25.748Z,455.00
2022-09-23T01:20:55.842Z,457.00
2022-09-23T01:21:25.893Z,458.00
2022-09-23T01:21:55.972Z,459.00
2022-09-23T01:22:26.038Z,459.00
2022-09-23T01:22:56.148Z,459.00
2022-09-23T01:23:26.257Z,459.00
2022-09-23T01:23:56.363Z,458.00
2022-09-23T01:24:26.473Z,458.00
2022-09-23T01:24:56.580Z,458.00
2022-09-23T01:25:26.688Z,460.00
2022-09-23T01:25:56.807Z,459.00
2022-09-23T01:26:26.914Z,459.00
2022-09-23T01:26:57.018Z,461.00
2022-09-23T01:27:27.129Z,459.00
2022-09-23T01:27:57.237Z,460.00
2022-09-23T01:28:27.346Z,458.00
2022-09-23T01:28:57.456Z,457.00
2022-09-23T01:29:27.566Z,457.00
2022-09-23T01:29:57.678Z,456.00
2022-09-23T01:30:27.825Z,455.00
2022-09-23T01:30:57.898Z,452.00
2022-09-23T01:31:27.900Z,452.00
2022-09-23T01:31:58.011Z,451.00
2022-09-23T01:32:28.118Z,452.00
2022-09-23T01:32:58.233Z,453.00
2022-09-23T01:33:28.367Z,453.00
2022-09-23T01:33:58.455Z,455.00
2022-09-23T01:34:28.569Z,454.00
2022-09-23T01:34:58.677Z,453.00
2022-09-23T01:35:28.792Z,454.00
2022-09-23T01:35:58.908Z,455.00
2022-09-23T01:36:29.020Z,453.00
2022-09-23T01:36:59.128Z,453.00
2022-09-23T01:37:29.245Z,450.00
2022-09-23T01:37:59.350Z,449.00
2022-09-23T01:38:29.467Z,450.00
2022-09-23T01:38:59.681Z,452.00
2022-09-23T01:39:29.639Z,453.00
2022-09-23T01:39:59.745Z,453.00
2022-09-23T01:40:29.937Z,452.00
2022-09-23T01:40:59.908Z,451.00
2022-09-23T01:41:30.020Z,452.00
2022-09-23T01:42:00.132Z,455.00
2022-09-23T01:42:30.243Z,455.00
2022-09-23T01:43:00.359Z,456.00
2022-09-23T01:43:30.471Z,457.00
2022-09-23T01:44:00.582Z,456.00
2022-09-23T01:44:30.696Z,455.00
2022-09-23T01:45:00.802Z,456.00
2022-09-23T01:45:30.912Z,456.00
2022-09-23T01:46:01.024Z,456.00
2022-09-23T01:46:31.138Z,458.00
2022-09-23T01:47:01.248Z,461.00
2022-09-23T01:47:31.357Z,462.00
2022-09-23T01:48:01.509Z,461.00
2022-09-23T01:48:31.608Z,462.00
2022-09-23T01:49:01.556Z,461.00
2022-09-23T01:49:31.539Z,459.00
2022-09-23T01:50:01.643Z,459.00
2022-09-23T01:50:31.753Z,459.00
2022-09-23T01:51:01.866Z,457.00
2022-09-23T01:51:31.975Z,454.00
2022-09-23T01:52:02.084Z,454.00
2022-09-23T01:52:32.196Z,453.00
2022-09-23T01:53:02.309Z,453.00
2022-09-23T01:53:32.421Z,453.00
2022-09-23T01:54:02.528Z,452.00
2022-09-23T01:54:32.641Z,453.00
2022-09-23T01:55:02.752Z,454.00
2022-09-23T01:55:32.865Z,452.00
2022-09-23T01:56:02.998Z,451.00
2022-09-23T01:56:32.969Z,450.00
2022-09-23T01:57:03.080Z,450.00
2022-09-23T01:57:33.191Z,450.00
2022-09-23T01:58:03.296Z,451.00
2022-09-23T01:58:33.409Z,451.00
2022-09-23T01:59:03.523Z,450.00
2022-09-23T01:59:33.632Z,454.00
2022-09-23T02:00:03.744Z,454.00
2022-09-23T02:00:33.857Z,455.00
2022-09-23T02:01:04.040Z,454.00
2022-09-23T02:01:34.076Z,454.00
2022-09-23T02:02:04.110Z,453.00
2022-09-23T02:02:34.133Z,455.00
2022-09-23T02:03:04.213Z,455.00
2022-09-23T02:03:34.342Z,454.00
2022-09-23T02:04:04.437Z,454.00
2022-09-23T02:04:34.547Z,454.00
2022-09-23T02:05:04.654Z,455.00
2022-09-23T02:05:34.769Z,455.00
2022-09-23T02:06:04.890Z,455.00
2022-09-23T02:06:34.879Z,454.00
2022-09-23T02:07:04.990Z,453.00
2022-09-23T02:07:35.096Z,453.00
2022-09-23T02:08:05.208Z,451.00
2022-09-23T02:08:35.326Z,453.00
2022-09-23T02:09:05.322Z,451.00
2022-09-23T02:09:35.436Z,452.00
2022-09-23T02:10:05.544Z,451.00
2022-09-23T02:10:35.651Z,452.00
2022-09-23T02:11:05.768Z,452.00
2022-09-23T02:11:35.875Z,453.00
2022-09-23T02:12:05.988Z,454.00
2022-09-23T02:12:36.080Z,456.00
2022-09-23T02:13:06.150Z,457.00
2022-09-23T02:13:36.221Z,457.00
2022-09-23T02:14:06.291Z,456.00
2022-09-23T02:14:36.366Z,457.00
2022-09-23T02:15:06.436Z,456.00
2022-09-23T02:15:36.509Z,456.00
2022-09-23T02:16:06.754Z,456.00
2022-09-23T02:16:36.704Z,456.00
2022-09-23T02:17:06.759Z,456.00
2022-09-23T02:17:36.830Z,455.00
2022-09-23T02:18:06.907Z,454.00
2022-09-23T02:18:36.999Z,456.00
2022-09-23T02:19:07.242Z,455.00
2022-09-23T02:19:37.107Z,456.00
2022-09-23T02:20:07.185Z,454.00
2022-09-23T02:20:37.256Z,452.00
2022-09-23T02:21:07.336Z,452.00
2022-09-23T02:21:37.408Z,452.00
2022-09-23T02:22:07.476Z,453.00
2022-09-23T02:22:37.568Z,450.00
2022-09-23T02:23:07.727Z,449.00
2022-09-23T02:23:37.685Z,447.00
2022-09-23T02:24:07.798Z,447.00
2022-09-23T02:24:37.908Z,449.00
2022-09-23T02:25:08.017Z,448.00
2022-09-23T02:25:38.127Z,448.00
2022-09-23T02:26:08.240Z,448.00
2022-09-23T02:26:38.351Z,449.00
2022-09-23T02:27:08.458Z,449.00
2022-09-23T02:27:38.566Z,449.00
2022-09-23T02:28:08.683Z,448.00
2022-09-23T02:28:38.789Z,449.00
2022-09-23T02:29:08.903Z,448.00
2022-09-23T02:29:39.016Z,447.00
2022-09-23T02:30:09.125Z,448.00
2022-09-23T02:30:39.234Z,449.00
2022-09-23T02:31:09.376Z,451.00
2022-09-23T02:31:39.417Z,451.00
2022-09-23T02:32:09.470Z,451.00
2022-09-23T02:32:39.448Z,452.00
2022-09-23T02:33:09.562Z,450.00
2022-09-23T02:33:39.673Z,451.00
2022-09-23T02:34:09.811Z,449.00
2022-09-23T02:34:39.899Z,447.00
2022-09-23T02:35:10.005Z,447.00
2022-09-23T02:35:40.122Z,448.00
2022-09-23T02:36:10.236Z,450.00
2022-09-23T02:36:40.220Z,451.00
2022-09-23T02:37:10.333Z,451.00
2022-09-23T02:37:40.443Z,450.00
2022-09-23T02:38:10.550Z,450.00
2022-09-23T02:38:40.662Z,449.00
2022-09-23T02:39:10.772Z,450.00
2022-09-23T02:39:40.887Z,450.00
2022-09-23T02:40:11.035Z,448.00
2022-09-23T02:40:41.059Z,447.00
2022-09-23T02:41:11.151Z,446.00
2022-09-23T02:41:41.266Z,450.00
2022-09-23T02:42:11.380Z,451.00
2022-09-23T02:42:41.492Z,452.00
2022-09-23T02:43:11.603Z,451.00
2022-09-23T02:43:41.712Z,451.00
2022-09-23T02:44:11.834Z,451.00
2022-09-23T02:44:41.938Z,451.00
2022-09-23T02:45:12.043Z,451.00
2022-09-23T02:45:42.247Z,452.00
2022-09-23T02:46:12.430Z,453.00
2022-09-23T02:46:42.285Z,453.00
2022-09-23T02:47:12.392Z,451.00
2022-09-23T02:47:42.501Z,451.00
2022-09-23T02:48:12.612Z,451.00
2022-09-23T02:48:42.717Z,451.00
2022-09-23T02:49:12.848Z,452.00
2022-09-23T02:49:42.938Z,451.00
2022-09-23T02:50:13.050Z,450.00
2022-09-23T02:50:43.162Z,451.00
2022-09-23T02:51:13.335Z,450.00
2022-09-23T02:51:43.318Z,452.00
2022-09-23T02:52:13.431Z,449.00
2022-09-23T02:52:43.545Z,449.00
2022-09-23T02:53:13.660Z,448.00
2022-09-23T02:53:43.773Z,451.00
2022-09-23T02:54:13.885Z,450.00
2022-09-23T02:54:44.000Z,451.00
2022-09-23T02:55:14.106Z,452.00
2022-09-23T02:55:44.215Z,452.00
2022-09-23T02:56:14.382Z,454.00
2022-09-23T02:56:44.366Z,454.00
2022-09-23T02:57:14.479Z,453.00
2022-09-23T02:57:44.587Z,452.00
2022-09-23T02:58:14.702Z,452.00
2022-09-23T02:58:44.810Z,456.00
2022-09-23T02:59:14.915Z,455.00
2022-09-23T02:59:45.031Z,454.00
2022-09-23T03:00:15.139Z,450.00
2022-09-23T03:00:45.325Z,450.00
2022-09-23T03:01:15.377Z,450.00
2022-09-23T03:01:45.360Z,451.00
2022-09-23T03:02:15.516Z,450.00
2022-09-23T03:02:45.488Z,449.00
2022-09-23T03:03:15.600Z,449.00
2022-09-23T03:03:45.709Z,446.00
2022-09-23T03:04:15.845Z,447.00
2022-09-23T03:04:45.928Z,446.00
2022-09-23T03:05:16.043Z,448.00
2022-09-23T03:05:46.149Z,448.00
2022-09-23T03:06:16.268Z,446.00
2022-09-23T03:06:46.393Z,445.00
2022-09-23T03:07:16.491Z,444.00
2022-09-23T03:07:46.605Z,446.00
2022-09-23T03:08:16.716Z,445.00
2022-09-23T03:08:46.826Z,446.00
2022-09-23T03:09:16.935Z,446.00
2022-09-23T03:09:47.039Z,446.00
2022-09-23T03:10:17.158Z,447.00
2022-09-23T03:10:47.270Z,447.00
2022-09-23T03:11:17.393Z,445.00
2022-09-23T03:11:47.385Z,444.00
2022-09-23T03:12:17.499Z,445.00
2022-09-23T03:12:47.579Z,446.00
2022-09-23T03:13:17.652Z,447.00
2022-09-23T03:13:47.724Z,446.00
2022-09-23T03:14:17.971Z,443.00
2022-09-23T03:14:47.895Z,443.00
2022-09-23T03:15:17.970Z,444.00
2022-09-23T03:15:48.041Z,445.00
2022-09-23T03:16:18.215Z,447.00
2022-09-23T03:16:48.249Z,448.00
2022-09-23T03:17:18.182Z,449.00
2022-09-23T03:17:48.261Z,449.00
2022-09-23T03:18:18.331Z,449.00
2022-09-23T03:18:48.403Z,450.00
2022-09-23T03:19:18.505Z,450.00
2022-09-23T03:19:48.556Z,450.00
2022-09-23T03:20:18.626Z,450.00
2022-09-23T03:20:48.700Z,448.00
2022-09-23T03:21:18.781Z,448.00
2022-09-23T03:21:48.874Z,446.00
2022-09-23T03:22:18.935Z,442.00
2022-09-23T03:22:49.043Z,440.00
2022-09-23T03:23:19.159Z,441.00
2022-09-23T03:23:49.263Z,442.00
2022-09-23T03:24:19.379Z,441.00
2022-09-23T03:24:53.756Z,443.00
2022-09-23T03:25:19.507Z,444.00
2022-09-23T03:25:49.621Z,444.00
2022-09-23T03:26:19.744Z,443.00
2022-09-23T03:26:49.727Z,445.00
2022-09-23T03:27:19.839Z,446.00
2022-09-23T03:27:49.949Z,444.00
2022-09-23T03:28:20.061Z,444.00
2022-09-23T03:28:50.171Z,443.00
2022-09-23T03:29:20.285Z,441.00
2022-09-23T03:29:50.401Z,441.00
2022-09-23T03:30:20.510Z,441.00
2022-09-23T03:30:50.619Z,440.00
2022-09-23T03:31:20.820Z,440.00
2022-09-23T03:31:50.889Z,441.00
2022-09-23T03:32:20.889Z,440.00
2022-09-23T03:32:51.001Z,443.00
2022-09-23T03:33:21.113Z,441.00
2022-09-23T03:33:51.227Z,443.00
2022-09-23T03:34:21.364Z,443.00
2022-09-23T03:34:51.456Z,444.00
2022-09-23T03:35:21.562Z,446.00
2022-09-23T03:35:51.673Z,445.00
2022-09-23T03:36:21.791Z,445.00
2022-09-23T03:36:51.899Z,446.00
2022-09-23T03:37:22.012Z,445.00
2022-09-23T03:37:52.124Z,445.00
2022-09-23T03:38:22.235Z,446.00
2022-09-23T03:38:52.349Z,445.00
2022-09-23T03:39:22.481Z,446.00
2022-09-23T03:39:52.575Z,445.00
2022-09-23T03:40:22.763Z,447.00
2022-09-23T03:40:52.892Z,447.00
2022-09-23T03:41:22.770Z,448.00
2022-09-23T03:41:52.875Z,450.00
2022-09-23T03:42:22.982Z,448.00
2022-09-23T03:42:53.088Z,447.00
2022-09-23T03:43:23.199Z,449.00
2022-09-23T03:43:53.314Z,448.00
2022-09-23T03:44:23.429Z,447.00
2022-09-23T03:44:53.534Z,445.00
2022-09-23T03:45:23.727Z,442.00
2022-09-23T03:45:53.727Z,441.00
2022-09-23T03:46:23.767Z,442.00
2022-09-23T03:46:53.878Z,442.00
2022-09-23T03:47:23.984Z,444.00
2022-09-23T03:47:54.099Z,444.00
2022-09-23T03:48:24.209Z,443.00
2022-09-23T03:48:54.313Z,443.00
2022-09-23T03:49:24.452Z,445.00
2022-09-23T03:49:54.536Z,444.00
2022-09-23T03:50:24.648Z,443.00
2022-09-23T03:50:54.764Z,443.00
2022-09-23T03:51:24.871Z,444.00
2022-09-23T03:51:54.980Z,442.00
2022-09-23T03:52:25.094Z,442.00
2022-09-23T03:52:55.202Z,443.00
2022-09-23T03:53:25.315Z,443.00
2022-09-23T03:53:55.422Z,442.00
2022-09-23T03:54:25.534Z,444.00
2022-09-23T03:54:55.644Z,443.00
2022-09-23T03:55:25.756Z,443.00
2022-09-23T03:55:55.874Z,448.00
2022-09-23T03:56:25.992Z,448.00
2022-09-23T03:56:56.098Z,448.00
2022-09-23T03:57:26.210Z,446.00
2022-09-23T03:57:56.322Z,445.00
2022-09-23T03:58:26.440Z,444.00
2022-09-23T03:58:56.552Z,445.00
2022-09-23T03:59:26.660Z,445.00
2022-09-23T03:59:56.773Z,445.00
2022-09-23T04:00:26.890Z,446.00
2022-09-23T04:00:57.049Z,446.00
2022-09-23T04:01:27.120Z,446.00
2022-09-23T04:01:57.180Z,449.00
2022-09-23T04:02:27.207Z,450.00
2022-09-23T04:02:57.196Z,449.00
2022-09-23T04:03:27.307Z,448.00
2022-09-23T04:03:57.422Z,448.00
2022-09-23T04:04:27.556Z,448.00
2022-09-23T04:04:57.639Z,451.00
2022-09-23T04:05:27.756Z,452.00
2022-09-23T04:05:57.865Z,456.00
2022-09-23T04:06:27.974Z,457.00
2022-09-23T04:06:58.088Z,459.00
2022-09-23T04:07:28.198Z,462.00
2022-09-23T04:07:58.318Z,465.00
2022-09-23T04:08:28.431Z,468.00
2022-09-23T04:08:58.538Z,467.00
2022-09-23T04:09:28.654Z,469.00
2022-09-23T04:09:58.767Z,469.00
2022-09-23T04:10:28.876Z,468.00
2022-09-23T04:10:58.888Z,468.00
2022-09-23T04:11:28.872Z,469.00
2022-09-23T04:11:58.979Z,471.00
2022-09-23T04:12:29.087Z,472.00
2022-09-23T04:12:59.157Z,472.00
2022-09-23T04:13:29.240Z,471.00
2022-09-23T04:13:59.303Z,472.00
2022-09-23T04:14:29.384Z,471.00
2022-09-23T04:14:59.449Z,469.00
2022-09-23T04:15:29.528Z,468.00
2022-09-23T04:15:59.653Z,467.00
2022-09-23T04:16:29.681Z,468.00
2022-09-23T04:16:59.610Z,468.00
2022-09-23T04:17:29.685Z,469.00
2022-09-23T04:17:59.751Z,468.00
2022-09-23T04:18:29.827Z,469.00
2022-09-23T04:18:59.937Z,469.00
2022-09-23T04:19:30.008Z,467.00
2022-09-23T04:20:00.068Z,469.00
2022-09-23T04:20:30.128Z,468.00
2022-09-23T04:21:00.204Z,467.00
2022-09-23T04:21:30.305Z,467.00
2022-09-23T04:22:00.375Z,466.00
2022-09-23T04:22:30.461Z,464.00
2022-09-23T04:23:00.570Z,463.00
2022-09-23T04:23:30.685Z,458.00
2022-09-23T04:24:00.802Z,463.00
2022-09-23T04:24:30.911Z,466.00
2022-09-23T04:25:01.026Z,465.00
2022-09-23T04:25:31.141Z,463.00
2022-09-23T04:26:01.251Z,463.00
2022-09-23T04:26:31.387Z,463.00
2022-09-23T04:27:01.372Z,461.00
2022-09-23T04:27:36.875Z,463.00
2022-09-23T04:28:01.493Z,467.00
2022-09-23T04:28:31.601Z,469.00
2022-09-23T04:29:01.769Z,471.00
2022-09-23T04:29:31.764Z,474.00
2022-09-23T04:30:01.878Z,469.00
2022-09-23T04:30:31.992Z,469.00
2022-09-23T04:31:02.162Z,467.00
2022-09-23T04:31:32.232Z,467.00
2022-09-23T04:32:02.205Z,467.00
2022-09-23T04:32:32.336Z,466.00
2022-09-23T04:33:02.317Z,465.00
2022-09-23T04:33:32.420Z,468.00
2022-09-23T04:34:02.538Z,467.00
2022-09-23T04:34:32.645Z,468.00
2022-09-23T04:35:02.853Z,471.00
2022-09-23T04:35:35.650Z,472.00
2022-09-23T04:36:02.811Z,475.00
2022-09-23T04:36:32.940Z,477.00
2022-09-23T04:37:02.929Z,479.00
2022-09-23T04:37:33.049Z,482.00
2022-09-23T04:38:03.147Z,484.00
2022-09-23T04:38:33.295Z,486.00
2022-09-23T04:39:03.368Z,489.00
2022-09-23T04:39:33.365Z,491.00
2022-09-23T04:40:03.472Z,492.00
2022-09-23T04:40:33.568Z,492.00
2022-09-23T04:41:03.480Z,493.00
2022-09-23T04:41:33.606Z,494.00
2022-09-23T04:42:03.714Z,496.00
2022-09-23T04:42:33.830Z,497.00
2022-09-23T04:43:03.936Z,500.00
2022-09-23T04:43:34.054Z,500.00
2022-09-23T04:44:04.159Z,498.00
2022-09-23T04:44:34.272Z,496.00
2022-09-23T04:45:04.379Z,496.00
2022-09-23T04:45:34.495Z,496.00
2022-09-23T04:46:04.610Z,496.00
2022-09-23T04:46:34.765Z,495.00
2022-09-23T04:47:04.782Z,495.00
2022-09-23T04:47:34.750Z,495.00
2022-09-23T04:48:04.738Z,494.00
2022-09-23T04:48:34.848Z,491.00
2022-09-23T04:49:04.968Z,491.00
2022-09-23T04:49:35.071Z,494.00
2022-09-23T04:50:05.205Z,496.00
2022-09-23T04:50:35.289Z,497.00
2022-09-23T04:51:05.403Z,498.00
2022-09-23T04:51:35.593Z,499.00
2022-09-23T04:52:05.576Z,502.00
2022-09-23T04:52:35.687Z,503.00
2022-09-23T04:53:05.792Z,507.00
2022-09-23T04:53:35.902Z,507.00
2022-09-23T04:54:06.014Z,507.00
2022-09-23T04:54:36.119Z,508.00
2022-09-23T04:55:10.966Z,508.00
2022-09-23T04:55:36.237Z,508.00
2022-09-23T04:56:06.346Z,507.00
2022-09-23T04:56:36.456Z,507.00
2022-09-23T04:57:06.576Z,508.00
2022-09-23T04:57:36.678Z,505.00
2022-09-23T04:58:06.789Z,505.00
2022-09-23T04:58:36.898Z,504.00
2022-09-23T04:59:07.200Z,503.00
2022-09-23T04:59:37.121Z,505.00
2022-09-23T05:00:07.244Z,503.00
2022-09-23T05:00:37.398Z,503.00
2022-09-23T05:01:07.439Z,502.00
2022-09-23T05:01:37.574Z,502.00
2022-09-23T05:02:07.589Z,502.00
2022-09-23T05:02:37.613Z,501.00
2022-09-23T05:03:07.577Z,498.00
2022-09-23T05:03:37.684Z,497.00
2022-09-23T05:04:07.804Z,497.00
2022-09-23T05:04:37.909Z,498.00
2022-09-23T05:05:08.039Z,495.00
2022-09-23T05:05:38.129Z,494.00
2022-09-23T05:06:08.239Z,492.00
2022-09-23T05:06:38.361Z,488.00
2022-09-23T05:07:08.471Z,485.00
2022-09-23T05:07:38.576Z,484.00
2022-09-23T05:08:08.695Z,480.00
2022-09-23T05:08:38.797Z,478.00
2022-09-23T05:09:09.103Z,478.00
2022-09-23T05:09:38.907Z,480.00
2022-09-23T05:10:09.020Z,483.00
2022-09-23T05:10:39.131Z,483.00
2022-09-23T05:11:09.247Z,480.00
2022-09-23T05:11:39.352Z,479.00
2022-09-23T05:12:09.467Z,477.00
2022-09-23T05:12:39.556Z,477.00
2022-09-23T05:13:09.626Z,477.00
2022-09-23T05:13:39.702Z,477.00
2022-09-23T05:14:09.776Z,478.00
2022-09-23T05:14:39.844Z,477.00
2022-09-23T05:15:09.919Z,477.00
2022-09-23T05:15:39.990Z,477.00
2022-09-23T05:16:10.157Z,477.00
2022-09-23T05:16:40.135Z,476.00
2022-09-23T05:17:10.211Z,477.00
2022-09-23T05:17:40.283Z,479.00
2022-09-23T05:18:10.352Z,478.00
2022-09-23T05:18:40.426Z,478.00
2022-09-23T05:19:10.533Z,479.00
2022-09-23T05:19:40.608Z,480.00
2022-09-23T05:20:10.704Z,483.00
2022-09-23T05:20:40.763Z,483.00
2022-09-23T05:21:10.838Z,485.00
2022-09-23T05:21:41.125Z,483.00
2022-09-23T05:22:10.944Z,482.00
2022-09-23T05:22:41.043Z,482.00
2022-09-23T05:23:11.153Z,484.00
2022-09-23T05:23:41.270Z,485.00
2022-09-23T05:24:11.381Z,486.00
2022-09-23T05:24:41.496Z,486.00
2022-09-23T05:25:11.609Z,485.00
2022-09-23T05:25:41.720Z,485.00
2022-09-23T05:26:11.829Z,484.00
2022-09-23T05:26:41.945Z,482.00
2022-09-23T05:27:12.055Z,482.00
2022-09-23T05:27:42.161Z,479.00
2022-09-23T05:28:12.272Z,481.00
2022-09-23T05:28:42.378Z,479.00
2022-09-23T05:29:12.489Z,480.00
2022-09-23T05:29:42.599Z,478.00
2022-09-23T05:30:12.714Z,480.00
2022-09-23T05:30:42.819Z,479.00
2022-09-23T05:31:18.705Z,479.00
2022-09-23T05:31:43.019Z,477.00
2022-09-23T05:32:13.016Z,478.00
2022-09-23T05:32:43.119Z,478.00
2022-09-23T05:33:13.228Z,480.00
2022-09-23T05:33:43.336Z,477.00
2022-09-23T05:34:13.449Z,477.00
2022-09-23T05:34:43.558Z,477.00
2022-09-23T05:35:13.696Z,477.00
2022-09-23T05:35:43.783Z,478.00
2022-09-23T05:36:13.897Z,479.00
2022-09-23T05:36:44.173Z,480.00
2022-09-23T05:37:14.032Z,480.00
2022-09-23T05:37:44.145Z,480.00
2022-09-23T05:38:14.250Z,480.00
2022-09-23T05:38:44.362Z,479.00
2022-09-23T05:39:14.476Z,478.00
2022-09-23T05:39:44.584Z,480.00
2022-09-23T05:40:14.757Z,478.00
2022-09-23T05:40:44.817Z,478.00
2022-09-23T05:41:14.789Z,476.00
2022-09-23T05:41:44.933Z,476.00
2022-09-23T05:42:15.016Z,476.00
2022-09-23T05:42:45.008Z,476.00
2022-09-23T05:43:15.124Z,477.00
2022-09-23T05:43:45.231Z,480.00
2022-09-23T05:44:15.340Z,481.00
2022-09-23T05:44:45.447Z,483.00
2022-09-23T05:45:15.562Z,482.00
2022-09-23T05:45:45.673Z,478.00
2022-09-23T05:46:15.842Z,478.00
2022-09-23T05:46:45.927Z,477.00
2022-09-23T05:47:15.887Z,475.00
2022-09-23T05:47:45.996Z,475.00
2022-09-23T05:48:16.110Z,477.00
2022-09-23T05:48:46.219Z,479.00
2022-09-23T05:49:16.334Z,482.00
2022-09-23T05:49:59.181Z,483.00
2022-09-23T05:50:16.456Z,487.00
2022-09-23T05:50:46.598Z,490.00
2022-09-23T05:51:16.671Z,490.00
2022-09-23T05:51:46.785Z,490.00
2022-09-23T05:52:16.784Z,490.00
2022-09-23T05:52:46.893Z,490.00
2022-09-23T05:53:17.006Z,490.00
2022-09-23T05:53:47.113Z,491.00
2022-09-23T05:54:17.222Z,494.00
2022-09-23T05:54:47.332Z,494.00
2022-09-23T05:55:17.435Z,494.00
2022-09-23T05:55:47.543Z,494.00
2022-09-23T05:56:17.667Z,493.00
2022-09-23T05:56:47.766Z,493.00
2022-09-23T05:57:17.873Z,492.00
2022-09-23T05:57:47.986Z,495.00
2022-09-23T05:58:18.093Z,493.00
2022-09-23T05:58:48.209Z,490.00
2022-09-23T05:59:18.317Z,491.00
2022-09-23T05:59:48.430Z,492.00
2022-09-23T06:00:18.556Z,491.00
2022-09-23T06:00:48.649Z,491.00
2022-09-23T06:01:18.862Z,492.00
2022-09-23T06:01:51.998Z,494.00
2022-09-23T06:02:18.961Z,495.00
2022-09-23T06:02:49.063Z,497.00
2022-09-23T06:03:19.023Z,497.00
2022-09-23T06:03:49.022Z,496.00
2022-09-23T06:04:19.108Z,496.00
2022-09-23T06:04:49.217Z,495.00
2022-09-23T06:05:19.331Z,495.00
2022-09-23T06:05:49.462Z,497.00
2022-09-23T06:06:19.554Z,499.00
2022-09-23T06:06:49.670Z,498.00
2022-09-23T06:07:19.787Z,498.00
2022-09-23T06:07:49.787Z,498.00
2022-09-23T06:08:19.899Z,497.00
2022-09-23T06:08:50.008Z,500.00
2022-09-23T06:09:20.120Z,499.00
2022-09-23T06:09:50.229Z,502.00
2022-09-23T06:10:20.340Z,502.00
2022-09-23T06:10:54.425Z,501.00
2022-09-23T06:11:20.488Z,502.00
2022-09-23T06:11:50.603Z,502.00
2022-09-23T06:12:20.719Z,501.00
2022-09-23T06:12:50.795Z,503.00
2022-09-23T06:13:20.860Z,504.00
2022-09-23T06:13:50.934Z,505.00
2022-09-23T06:14:21.002Z,502.00
2022-09-23T06:14:51.073Z,499.00
2022-09-23T06:15:21.143Z,504.00
2022-09-23T06:15:51.253Z,505.00
2022-09-23T06:16:21.334Z,509.00
2022-09-23T06:16:51.378Z,510.00
2022-09-23T06:17:21.455Z,509.00
2022-09-23T06:17:51.527Z,512.00
2022-09-23T06:18:21.602Z,513.00
2022-09-23T06:18:51.678Z,517.00